sensor_id;sensor_type;location;lat;lon;timestamp;P1;durP1;ratioP1;P2;durP2;ratioP2
70733;SDS011;58320;48.804;9.252;2024-01-11T00:00:16;44.80;;;19.67;;
70733;SDS011;58320;48.804;9.252;2024-01-11T00:02:44;42.13;;;19.53;;
70733;SDS011;58320;48.804;9.252;2024-01-11T00:05:10;45.72;;;21.15;;
70733;SDS011;58320;48.804;9.252;2024-01-11T00:07:35;49.37;;;21.20;;
70733;SDS011;58320;48.804;9.252;2024-01-11T00:10:01;54.30;;;20.50;;
70733;SDS011;58320;48.804;9.252;2024-01-11T00:12:28;48.45;;;21.23;;
70733;SDS011;58320;48.804;9.252;2024-01-11T00:14:54;48.38;;;21.45;;
70733;SDS011;58320;48.804;9.252;2024-01-11T00:17:20;43.57;;;20.13;;
70733;SDS011;58320;48.804;9.252;2024-01-11T00:19:46;46.13;;;20.20;;
70733;SDS011;58320;48.804;9.252;2024-01-11T00:22:11;56.10;;;21.80;;
70733;SDS011;58320;48.804;9.252;2024-01-11T00:24:37;45.42;;;21.33;;
70733;SDS011;58320;48.804;9.252;2024-01-11T00:27:03;48.97;;;20.53;;
70733;SDS011;58320;48.804;9.252;2024-01-11T00:29:29;46.25;;;20.77;;
70733;SDS011;58320;48.804;9.252;2024-01-11T00:31:54;48.73;;;19.93;;
70733;SDS011;58320;48.804;9.252;2024-01-11T00:34:20;42.60;;;19.05;;
70733;SDS011;58320;48.804;9.252;2024-01-11T00:36:46;47.45;;;21.00;;
70733;SDS011;58320;48.804;9.252;2024-01-11T00:39:12;45.17;;;19.35;;
70733;SDS011;58320;48.804;9.252;2024-01-11T00:41:38;44.33;;;18.27;;
70733;SDS011;58320;48.804;9.252;2024-01-11T00:44:04;40.88;;;18.00;;
70733;SDS011;58320;48.804;9.252;2024-01-11T00:46:30;42.67;;;18.80;;
70733;SDS011;58320;48.804;9.252;2024-01-11T00:48:55;45.28;;;19.65;;
70733;SDS011;58320;48.804;9.252;2024-01-11T00:51:21;42.23;;;21.03;;
70733;SDS011;58320;48.804;9.252;2024-01-11T00:53:47;45.42;;;21.42;;
70733;SDS011;58320;48.804;9.252;2024-01-11T00:56:19;46.33;;;20.20;;
70733;SDS011;58320;48.804;9.252;2024-01-11T00:58:46;50.55;;;21.10;;
70733;SDS011;58320;48.804;9.252;2024-01-11T01:01:12;48.60;;;21.45;;
70733;SDS011;58320;48.804;9.252;2024-01-11T01:03:38;43.03;;;18.90;;
70733;SDS011;58320;48.804;9.252;2024-01-11T01:06:04;46.40;;;20.60;;
70733;SDS011;58320;48.804;9.252;2024-01-11T01:08:31;47.50;;;21.15;;
70733;SDS011;58320;48.804;9.252;2024-01-11T01:10:57;49.03;;;20.95;;
70733;SDS011;58320;48.804;9.252;2024-01-11T01:13:22;45.50;;;19.63;;
70733;SDS011;58320;48.804;9.252;2024-01-11T01:15:48;45.28;;;20.60;;
70733;SDS011;58320;48.804;9.252;2024-01-11T01:18:14;45.07;;;19.80;;
70733;SDS011;58320;48.804;9.252;2024-01-11T01:20:40;44.63;;;20.73;;
70733;SDS011;58320;48.804;9.252;2024-01-11T01:23:05;45.83;;;18.77;;
70733;SDS011;58320;48.804;9.252;2024-01-11T01:25:31;42.17;;;19.23;;
70733;SDS011;58320;48.804;9.252;2024-01-11T01:28:00;47.20;;;20.45;;
70733;SDS011;58320;48.804;9.252;2024-01-11T01:30:26;44.90;;;20.00;;
70733;SDS011;58320;48.804;9.252;2024-01-11T01:32:52;45.83;;;21.23;;
70733;SDS011;58320;48.804;9.252;2024-01-11T01:35:18;43.17;;;19.25;;
70733;SDS011;58320;48.804;9.252;2024-01-11T01:37:44;41.95;;;19.65;;
70733;SDS011;58320;48.804;9.252;2024-01-11T01:40:13;45.80;;;21.20;;
70733;SDS011;58320;48.804;9.252;2024-01-11T01:42:42;42.93;;;21.13;;
70733;SDS011;58320;48.804;9.252;2024-01-11T01:45:11;45.80;;;22.05;;
70733;SDS011;58320;48.804;9.252;2024-01-11T01:47:38;47.63;;;21.88;;
70733;SDS011;58320;48.804;9.252;2024-01-11T01:50:07;46.10;;;21.77;;
70733;SDS011;58320;48.804;9.252;2024-01-11T01:52:35;50.90;;;22.67;;
70733;SDS011;58320;48.804;9.252;2024-01-11T01:55:03;42.03;;;20.03;;
70733;SDS011;58320;48.804;9.252;2024-01-11T01:57:29;41.15;;;20.15;;
70733;SDS011;58320;48.804;9.252;2024-01-11T01:59:58;41.17;;;20.33;;
70733;SDS011;58320;48.804;9.252;2024-01-11T02:02:24;41.30;;;19.02;;
70733;SDS011;58320;48.804;9.252;2024-01-11T02:04:50;46.53;;;20.45;;
70733;SDS011;58320;48.804;9.252;2024-01-11T02:07:16;41.03;;;20.03;;
70733;SDS011;58320;48.804;9.252;2024-01-11T02:09:43;46.22;;;19.25;;
70733;SDS011;58320;48.804;9.252;2024-01-11T02:12:10;45.30;;;20.95;;
70733;SDS011;58320;48.804;9.252;2024-01-11T02:14:37;45.00;;;20.15;;
70733;SDS011;58320;48.804;9.252;2024-01-11T02:17:03;48.93;;;19.63;;
70733;SDS011;58320;48.804;9.252;2024-01-11T02:19:29;42.60;;;18.20;;
70733;SDS011;58320;48.804;9.252;2024-01-11T02:21:55;47.27;;;20.03;;
70733;SDS011;58320;48.804;9.252;2024-01-11T02:24:30;46.85;;;20.08;;
70733;SDS011;58320;48.804;9.252;2024-01-11T02:27:03;50.15;;;19.35;;
70733;SDS011;58320;48.804;9.252;2024-01-11T02:29:30;45.92;;;19.63;;
70733;SDS011;58320;48.804;9.252;2024-01-11T02:31:57;44.05;;;20.13;;
70733;SDS011;58320;48.804;9.252;2024-01-11T02:34:26;43.33;;;18.90;;
70733;SDS011;58320;48.804;9.252;2024-01-11T02:36:55;47.47;;;18.83;;
70733;SDS011;58320;48.804;9.252;2024-01-11T02:39:22;41.05;;;17.75;;
70733;SDS011;58320;48.804;9.252;2024-01-11T02:41:52;47.63;;;19.55;;
70733;SDS011;58320;48.804;9.252;2024-01-11T02:44:21;44.45;;;19.08;;
70733;SDS011;58320;48.804;9.252;2024-01-11T02:46:47;41.57;;;18.83;;
70733;SDS011;58320;48.804;9.252;2024-01-11T02:49:12;40.57;;;19.17;;
70733;SDS011;58320;48.804;9.252;2024-01-11T02:51:38;43.43;;;18.73;;
70733;SDS011;58320;48.804;9.252;2024-01-11T02:54:04;41.95;;;18.83;;
70733;SDS011;58320;48.804;9.252;2024-01-11T02:56:30;39.05;;;18.63;;
70733;SDS011;58320;48.804;9.252;2024-01-11T02:58:56;43.60;;;18.83;;
70733;SDS011;58320;48.804;9.252;2024-01-11T03:01:22;40.22;;;18.48;;
70733;SDS011;58320;48.804;9.252;2024-01-11T03:03:47;38.93;;;18.17;;
70733;SDS011;58320;48.804;9.252;2024-01-11T03:06:13;36.75;;;18.33;;
70733;SDS011;58320;48.804;9.252;2024-01-11T03:08:39;42.57;;;17.33;;
70733;SDS011;58320;48.804;9.252;2024-01-11T03:11:05;44.45;;;18.80;;
70733;SDS011;58320;48.804;9.252;2024-01-11T03:13:31;44.72;;;19.75;;
70733;SDS011;58320;48.804;9.252;2024-01-11T03:15:57;39.35;;;17.92;;
70733;SDS011;58320;48.804;9.252;2024-01-11T03:18:23;44.93;;;20.03;;
70733;SDS011;58320;48.804;9.252;2024-01-11T03:20:48;40.30;;;18.77;;
70733;SDS011;58320;48.804;9.252;2024-01-11T03:23:14;44.77;;;19.33;;
70733;SDS011;58320;48.804;9.252;2024-01-11T03:25:40;46.38;;;20.10;;
70733;SDS011;58320;48.804;9.252;2024-01-11T03:28:05;39.67;;;18.20;;
70733;SDS011;58320;48.804;9.252;2024-01-11T03:30:31;53.22;;;21.52;;
70733;SDS011;58320;48.804;9.252;2024-01-11T03:32:57;50.22;;;19.33;;
70733;SDS011;58320;48.804;9.252;2024-01-11T03:35:23;45.37;;;19.03;;
70733;SDS011;58320;48.804;9.252;2024-01-11T03:37:48;43.35;;;18.55;;
70733;SDS011;58320;48.804;9.252;2024-01-11T03:40:14;38.50;;;16.47;;
70733;SDS011;58320;48.804;9.252;2024-01-11T03:42:41;43.42;;;18.02;;
70733;SDS011;58320;48.804;9.252;2024-01-11T03:45:07;45.97;;;18.33;;
70733;SDS011;58320;48.804;9.252;2024-01-11T03:47:33;43.73;;;18.73;;
70733;SDS011;58320;48.804;9.252;2024-01-11T03:49:59;38.90;;;18.02;;
70733;SDS011;58320;48.804;9.252;2024-01-11T03:52:25;40.83;;;17.73;;
70733;SDS011;58320;48.804;9.252;2024-01-11T03:54:50;44.40;;;18.75;;
70733;SDS011;58320;48.804;9.252;2024-01-11T03:57:16;45.33;;;18.53;;
70733;SDS011;58320;48.804;9.252;2024-01-11T03:59:42;36.10;;;16.73;;
70733;SDS011;58320;48.804;9.252;2024-01-11T04:04:05;38.70;;;17.70;;
70733;SDS011;58320;48.804;9.252;2024-01-11T04:06:31;40.13;;;17.47;;
70733;SDS011;58320;48.804;9.252;2024-01-11T04:08:56;44.90;;;18.33;;
70733;SDS011;58320;48.804;9.252;2024-01-11T04:11:22;41.22;;;17.63;;
70733;SDS011;58320;48.804;9.252;2024-01-11T04:13:48;41.80;;;17.57;;
70733;SDS011;58320;48.804;9.252;2024-01-11T04:16:14;41.95;;;17.73;;
70733;SDS011;58320;48.804;9.252;2024-01-11T04:18:39;34.83;;;15.90;;
70733;SDS011;58320;48.804;9.252;2024-01-11T04:21:05;36.50;;;16.60;;
70733;SDS011;58320;48.804;9.252;2024-01-11T04:23:31;38.63;;;17.43;;
70733;SDS011;58320;48.804;9.252;2024-01-11T04:25:56;41.85;;;18.20;;
70733;SDS011;58320;48.804;9.252;2024-01-11T04:28:22;41.97;;;16.83;;
70733;SDS011;58320;48.804;9.252;2024-01-11T04:30:48;45.83;;;19.05;;
70733;SDS011;58320;48.804;9.252;2024-01-11T04:33:14;40.42;;;16.92;;
70733;SDS011;58320;48.804;9.252;2024-01-11T04:35:40;39.60;;;16.97;;
70733;SDS011;58320;48.804;9.252;2024-01-11T04:38:05;42.73;;;19.37;;
70733;SDS011;58320;48.804;9.252;2024-01-11T04:40:31;40.63;;;18.10;;
70733;SDS011;58320;48.804;9.252;2024-01-11T04:42:57;41.03;;;16.13;;
70733;SDS011;58320;48.804;9.252;2024-01-11T04:45:22;40.87;;;17.80;;
70733;SDS011;58320;48.804;9.252;2024-01-11T04:47:50;43.13;;;18.53;;
70733;SDS011;58320;48.804;9.252;2024-01-11T04:50:16;44.67;;;20.57;;
70733;SDS011;58320;48.804;9.252;2024-01-11T04:52:41;49.00;;;18.60;;
70733;SDS011;58320;48.804;9.252;2024-01-11T04:55:07;42.70;;;18.17;;
70733;SDS011;58320;48.804;9.252;2024-01-11T04:57:33;41.60;;;18.52;;
70733;SDS011;58320;48.804;9.252;2024-01-11T04:59:59;40.33;;;18.73;;
70733;SDS011;58320;48.804;9.252;2024-01-11T05:02:24;43.90;;;18.63;;
70733;SDS011;58320;48.804;9.252;2024-01-11T05:04:50;41.65;;;18.45;;
70733;SDS011;58320;48.804;9.252;2024-01-11T05:07:16;41.57;;;17.67;;
70733;SDS011;58320;48.804;9.252;2024-01-11T05:09:41;45.03;;;18.15;;
70733;SDS011;58320;48.804;9.252;2024-01-11T05:12:07;40.53;;;16.67;;
70733;SDS011;58320;48.804;9.252;2024-01-11T05:14:33;40.47;;;16.33;;
70733;SDS011;58320;48.804;9.252;2024-01-11T05:16:58;42.80;;;17.57;;
70733;SDS011;58320;48.804;9.252;2024-01-11T05:19:25;48.92;;;18.50;;
70733;SDS011;58320;48.804;9.252;2024-01-11T05:21:51;43.10;;;19.20;;
70733;SDS011;58320;48.804;9.252;2024-01-11T05:24:17;43.38;;;18.50;;
70733;SDS011;58320;48.804;9.252;2024-01-11T05:26:42;45.10;;;19.07;;
70733;SDS011;58320;48.804;9.252;2024-01-11T05:29:08;44.35;;;16.88;;
70733;SDS011;58320;48.804;9.252;2024-01-11T05:31:34;40.20;;;17.25;;
70733;SDS011;58320;48.804;9.252;2024-01-11T05:34:00;40.97;;;18.23;;
70733;SDS011;58320;48.804;9.252;2024-01-11T05:36:25;40.88;;;18.70;;
70733;SDS011;58320;48.804;9.252;2024-01-11T05:38:51;38.07;;;16.83;;
70733;SDS011;58320;48.804;9.252;2024-01-11T05:41:17;46.63;;;20.35;;
70733;SDS011;58320;48.804;9.252;2024-01-11T05:43:42;46.00;;;19.63;;
70733;SDS011;58320;48.804;9.252;2024-01-11T05:46:09;40.47;;;18.52;;
70733;SDS011;58320;48.804;9.252;2024-01-11T05:48:34;43.83;;;18.30;;
70733;SDS011;58320;48.804;9.252;2024-01-11T05:51:00;47.03;;;17.97;;
70733;SDS011;58320;48.804;9.252;2024-01-11T05:53:26;44.35;;;17.95;;
70733;SDS011;58320;48.804;9.252;2024-01-11T05:55:52;42.53;;;19.57;;
70733;SDS011;58320;48.804;9.252;2024-01-11T05:58:18;49.15;;;20.38;;
70733;SDS011;58320;48.804;9.252;2024-01-11T06:00:45;49.38;;;20.33;;
70733;SDS011;58320;48.804;9.252;2024-01-11T06:03:14;48.30;;;19.05;;
70733;SDS011;58320;48.804;9.252;2024-01-11T06:05:40;43.25;;;19.50;;
70733;SDS011;58320;48.804;9.252;2024-01-11T06:08:06;44.90;;;20.53;;
70733;SDS011;58320;48.804;9.252;2024-01-11T06:10:32;46.75;;;20.63;;
70733;SDS011;58320;48.804;9.252;2024-01-11T06:12:58;45.70;;;18.88;;
70733;SDS011;58320;48.804;9.252;2024-01-11T06:15:24;44.97;;;17.90;;
70733;SDS011;58320;48.804;9.252;2024-01-11T06:17:49;42.88;;;19.20;;
70733;SDS011;58320;48.804;9.252;2024-01-11T06:20:15;47.20;;;18.03;;
70733;SDS011;58320;48.804;9.252;2024-01-11T06:22:41;43.25;;;19.33;;
70733;SDS011;58320;48.804;9.252;2024-01-11T06:25:07;39.88;;;16.77;;
70733;SDS011;58320;48.804;9.252;2024-01-11T06:27:33;39.53;;;18.63;;
70733;SDS011;58320;48.804;9.252;2024-01-11T06:29:59;41.40;;;18.23;;
70733;SDS011;58320;48.804;9.252;2024-01-11T06:32:24;45.65;;;18.02;;
70733;SDS011;58320;48.804;9.252;2024-01-11T06:34:50;47.50;;;18.57;;
70733;SDS011;58320;48.804;9.252;2024-01-11T06:37:16;44.10;;;18.15;;
70733;SDS011;58320;48.804;9.252;2024-01-11T06:39:42;42.23;;;19.33;;
70733;SDS011;58320;48.804;9.252;2024-01-11T06:42:07;44.28;;;19.52;;
70733;SDS011;58320;48.804;9.252;2024-01-11T06:44:33;44.17;;;19.10;;
70733;SDS011;58320;48.804;9.252;2024-01-11T06:46:59;41.63;;;18.45;;
70733;SDS011;58320;48.804;9.252;2024-01-11T06:49:26;43.33;;;19.98;;
70733;SDS011;58320;48.804;9.252;2024-01-11T06:51:52;40.70;;;18.10;;
70733;SDS011;58320;48.804;9.252;2024-01-11T06:54:18;41.07;;;18.50;;
70733;SDS011;58320;48.804;9.252;2024-01-11T06:56:43;45.33;;;18.15;;
70733;SDS011;58320;48.804;9.252;2024-01-11T06:59:09;45.33;;;20.07;;
70733;SDS011;58320;48.804;9.252;2024-01-11T07:01:35;44.53;;;20.60;;
70733;SDS011;58320;48.804;9.252;2024-01-11T07:04:01;47.50;;;20.10;;
70733;SDS011;58320;48.804;9.252;2024-01-11T07:06:26;43.55;;;19.17;;
70733;SDS011;58320;48.804;9.252;2024-01-11T07:08:52;47.23;;;19.77;;
70733;SDS011;58320;48.804;9.252;2024-01-11T07:11:18;47.67;;;20.17;;
70733;SDS011;58320;48.804;9.252;2024-01-11T07:13:44;42.30;;;19.08;;
70733;SDS011;58320;48.804;9.252;2024-01-11T07:16:09;41.80;;;18.77;;
70733;SDS011;58320;48.804;9.252;2024-01-11T07:18:35;48.40;;;19.90;;
70733;SDS011;58320;48.804;9.252;2024-01-11T07:21:01;46.43;;;19.33;;
70733;SDS011;58320;48.804;9.252;2024-01-11T07:23:27;41.65;;;19.17;;
70733;SDS011;58320;48.804;9.252;2024-01-11T07:25:52;41.63;;;18.00;;
70733;SDS011;58320;48.804;9.252;2024-01-11T07:28:18;44.83;;;17.95;;
70733;SDS011;58320;48.804;9.252;2024-01-11T07:30:49;42.40;;;18.85;;
70733;SDS011;58320;48.804;9.252;2024-01-11T07:33:16;45.22;;;18.60;;
70733;SDS011;58320;48.804;9.252;2024-01-11T07:35:41;50.53;;;20.60;;
70733;SDS011;58320;48.804;9.252;2024-01-11T07:38:07;44.20;;;19.95;;
70733;SDS011;58320;48.804;9.252;2024-01-11T07:40:33;48.27;;;19.50;;
70733;SDS011;58320;48.804;9.252;2024-01-11T07:42:59;45.05;;;19.98;;
70733;SDS011;58320;48.804;9.252;2024-01-11T07:45:24;49.40;;;19.50;;
70733;SDS011;58320;48.804;9.252;2024-01-11T07:47:50;44.97;;;19.50;;
70733;SDS011;58320;48.804;9.252;2024-01-11T07:50:15;48.33;;;19.80;;
70733;SDS011;58320;48.804;9.252;2024-01-11T07:52:41;46.65;;;19.77;;
70733;SDS011;58320;48.804;9.252;2024-01-11T07:55:07;45.67;;;20.57;;
70733;SDS011;58320;48.804;9.252;2024-01-11T07:57:39;43.37;;;20.33;;
70733;SDS011;58320;48.804;9.252;2024-01-11T08:00:05;45.72;;;18.88;;
70733;SDS011;58320;48.804;9.252;2024-01-11T08:02:32;41.10;;;17.30;;
70733;SDS011;58320;48.804;9.252;2024-01-11T08:04:58;43.53;;;20.30;;
70733;SDS011;58320;48.804;9.252;2024-01-11T08:07:27;41.13;;;19.25;;
70733;SDS011;58320;48.804;9.252;2024-01-11T08:09:54;48.17;;;20.87;;
70733;SDS011;58320;48.804;9.252;2024-01-11T08:12:20;45.40;;;19.13;;
70733;SDS011;58320;48.804;9.252;2024-01-11T08:14:46;45.75;;;18.92;;
70733;SDS011;58320;48.804;9.252;2024-01-11T08:17:13;45.80;;;20.77;;
70733;SDS011;58320;48.804;9.252;2024-01-11T08:19:39;48.55;;;19.70;;
70733;SDS011;58320;48.804;9.252;2024-01-11T08:22:07;44.63;;;19.90;;
70733;SDS011;58320;48.804;9.252;2024-01-11T08:24:34;44.45;;;18.23;;
70733;SDS011;58320;48.804;9.252;2024-01-11T08:27:00;42.92;;;19.63;;
70733;SDS011;58320;48.804;9.252;2024-01-11T08:29:26;48.20;;;20.75;;
70733;SDS011;58320;48.804;9.252;2024-01-11T08:31:52;41.93;;;20.07;;
70733;SDS011;58320;48.804;9.252;2024-01-11T08:34:19;40.42;;;18.95;;
70733;SDS011;58320;48.804;9.252;2024-01-11T08:36:46;53.20;;;22.73;;
70733;SDS011;58320;48.804;9.252;2024-01-11T08:39:12;44.88;;;20.08;;
70733;SDS011;58320;48.804;9.252;2024-01-11T08:41:39;40.38;;;19.50;;
70733;SDS011;58320;48.804;9.252;2024-01-11T08:44:05;51.80;;;21.77;;
70733;SDS011;58320;48.804;9.252;2024-01-11T08:46:31;47.47;;;21.20;;
70733;SDS011;58320;48.804;9.252;2024-01-11T08:49:00;46.60;;;21.83;;
70733;SDS011;58320;48.804;9.252;2024-01-11T08:51:30;46.10;;;20.55;;
70733;SDS011;58320;48.804;9.252;2024-01-11T08:53:59;40.30;;;19.53;;
70733;SDS011;58320;48.804;9.252;2024-01-11T08:56:25;47.70;;;20.98;;
70733;SDS011;58320;48.804;9.252;2024-01-11T08:58:50;48.93;;;21.27;;
70733;SDS011;58320;48.804;9.252;2024-01-11T09:01:16;46.33;;;19.75;;
70733;SDS011;58320;48.804;9.252;2024-01-11T09:03:43;52.03;;;22.25;;
70733;SDS011;58320;48.804;9.252;2024-01-11T09:06:09;45.60;;;21.63;;
70733;SDS011;58320;48.804;9.252;2024-01-11T09:08:35;44.80;;;19.63;;
70733;SDS011;58320;48.804;9.252;2024-01-11T09:11:01;50.63;;;21.65;;
70733;SDS011;58320;48.804;9.252;2024-01-11T09:13:27;46.37;;;22.67;;
70733;SDS011;58320;48.804;9.252;2024-01-11T09:15:53;53.33;;;22.45;;
70733;SDS011;58320;48.804;9.252;2024-01-11T09:18:20;45.85;;;22.75;;
70733;SDS011;58320;48.804;9.252;2024-01-11T09:20:46;50.05;;;21.23;;
70733;SDS011;58320;48.804;9.252;2024-01-11T09:23:12;50.75;;;22.10;;
70733;SDS011;58320;48.804;9.252;2024-01-11T09:25:38;45.53;;;21.70;;
70733;SDS011;58320;48.804;9.252;2024-01-11T09:28:05;48.05;;;22.35;;
70733;SDS011;58320;48.804;9.252;2024-01-11T09:30:30;46.33;;;21.35;;
70733;SDS011;58320;48.804;9.252;2024-01-11T09:32:56;52.95;;;21.45;;
70733;SDS011;58320;48.804;9.252;2024-01-11T09:35:22;42.40;;;20.93;;
70733;SDS011;58320;48.804;9.252;2024-01-11T09:37:48;48.13;;;22.30;;
70733;SDS011;58320;48.804;9.252;2024-01-11T09:40:15;47.20;;;22.55;;
70733;SDS011;58320;48.804;9.252;2024-01-11T09:42:42;47.30;;;22.48;;
70733;SDS011;58320;48.804;9.252;2024-01-11T09:45:09;42.23;;;21.17;;
70733;SDS011;58320;48.804;9.252;2024-01-11T09:47:43;46.50;;;20.27;;
70733;SDS011;58320;48.804;9.252;2024-01-11T09:50:15;42.63;;;20.52;;
70733;SDS011;58320;48.804;9.252;2024-01-11T09:52:49;45.80;;;21.67;;
70733;SDS011;58320;48.804;9.252;2024-01-11T09:55:17;45.25;;;21.05;;
70733;SDS011;58320;48.804;9.252;2024-01-11T09:57:52;43.88;;;22.40;;
70733;SDS011;58320;48.804;9.252;2024-01-11T10:00:23;43.97;;;20.65;;
70733;SDS011;58320;48.804;9.252;2024-01-11T10:02:49;45.45;;;21.75;;
70733;SDS011;58320;48.804;9.252;2024-01-11T10:05:17;44.77;;;20.60;;
70733;SDS011;58320;48.804;9.252;2024-01-11T10:07:43;47.63;;;20.85;;
70733;SDS011;58320;48.804;9.252;2024-01-11T10:10:10;42.67;;;20.73;;
70733;SDS011;58320;48.804;9.252;2024-01-11T10:12:37;42.08;;;20.98;;
70733;SDS011;58320;48.804;9.252;2024-01-11T10:15:06;54.13;;;22.43;;
70733;SDS011;58320;48.804;9.252;2024-01-11T10:17:34;46.83;;;20.40;;
70733;SDS011;58320;48.804;9.252;2024-01-11T10:20:07;44.80;;;22.33;;
70733;SDS011;58320;48.804;9.252;2024-01-11T10:22:35;49.42;;;22.83;;
70733;SDS011;58320;48.804;9.252;2024-01-11T10:25:08;51.35;;;22.65;;
70733;SDS011;58320;48.804;9.252;2024-01-11T10:27:37;44.80;;;20.80;;
70733;SDS011;58320;48.804;9.252;2024-01-11T10:30:05;43.38;;;21.00;;
70733;SDS011;58320;48.804;9.252;2024-01-11T10:32:32;42.90;;;20.98;;
70733;SDS011;58320;48.804;9.252;2024-01-11T10:34:59;42.40;;;20.80;;
70733;SDS011;58320;48.804;9.252;2024-01-11T10:37:29;43.65;;;21.70;;
70733;SDS011;58320;48.804;9.252;2024-01-11T10:40:03;42.17;;;20.43;;
70733;SDS011;58320;48.804;9.252;2024-01-11T10:42:49;46.50;;;22.45;;
70733;SDS011;58320;48.804;9.252;2024-01-11T10:45:17;46.90;;;21.95;;
70733;SDS011;58320;48.804;9.252;2024-01-11T10:47:54;49.45;;;22.73;;
70733;SDS011;58320;48.804;9.252;2024-01-11T10:50:25;48.65;;;22.88;;
70733;SDS011;58320;48.804;9.252;2024-01-11T10:55:57;49.63;;;23.23;;
70733;SDS011;58320;48.804;9.252;2024-01-11T10:58:24;42.25;;;22.30;;
70733;SDS011;58320;48.804;9.252;2024-01-11T11:00:52;44.70;;;21.83;;
70733;SDS011;58320;48.804;9.252;2024-01-11T11:03:20;45.67;;;21.75;;
70733;SDS011;58320;48.804;9.252;2024-01-11T11:05:48;44.97;;;21.27;;
70733;SDS011;58320;48.804;9.252;2024-01-11T11:08:18;47.35;;;22.80;;
70733;SDS011;58320;48.804;9.252;2024-01-11T11:10:45;40.13;;;21.52;;
70733;SDS011;58320;48.804;9.252;2024-01-11T11:13:14;46.45;;;22.55;;
70733;SDS011;58320;48.804;9.252;2024-01-11T11:15:46;43.17;;;22.20;;
70733;SDS011;58320;48.804;9.252;2024-01-11T11:18:13;46.33;;;21.17;;
70733;SDS011;58320;48.804;9.252;2024-01-11T11:20:40;43.67;;;21.25;;
70733;SDS011;58320;48.804;9.252;2024-01-11T11:23:07;46.08;;;23.38;;
70733;SDS011;58320;48.804;9.252;2024-01-11T11:25:35;43.55;;;22.05;;
70733;SDS011;58320;48.804;9.252;2024-01-11T11:28:03;40.42;;;21.55;;
70733;SDS011;58320;48.804;9.252;2024-01-11T11:30:32;39.53;;;21.07;;
70733;SDS011;58320;48.804;9.252;2024-01-11T11:33:08;43.95;;;21.02;;
70733;SDS011;58320;48.804;9.252;2024-01-11T11:35:48;43.75;;;21.88;;
70733;SDS011;58320;48.804;9.252;2024-01-11T11:38:22;41.33;;;22.08;;
70733;SDS011;58320;48.804;9.252;2024-01-11T11:40:54;42.45;;;21.40;;
70733;SDS011;58320;48.804;9.252;2024-01-11T11:43:22;39.03;;;21.40;;
70733;SDS011;58320;48.804;9.252;2024-01-11T11:45:49;43.80;;;22.88;;
70733;SDS011;58320;48.804;9.252;2024-01-11T11:51:16;41.53;;;23.13;;
70733;SDS011;58320;48.804;9.252;2024-01-11T11:53:46;38.08;;;21.80;;
70733;SDS011;58320;48.804;9.252;2024-01-11T11:56:13;39.53;;;22.57;;
70733;SDS011;58320;48.804;9.252;2024-01-11T11:58:42;41.00;;;22.30;;
70733;SDS011;58320;48.804;9.252;2024-01-11T12:01:09;39.65;;;21.10;;
70733;SDS011;58320;48.804;9.252;2024-01-11T12:03:36;39.80;;;21.73;;
70733;SDS011;58320;48.804;9.252;2024-01-11T12:06:17;39.92;;;22.70;;
70733;SDS011;58320;48.804;9.252;2024-01-11T12:08:46;38.27;;;22.70;;
70733;SDS011;58320;48.804;9.252;2024-01-11T12:11:13;39.92;;;22.38;;
70733;SDS011;58320;48.804;9.252;2024-01-11T12:13:43;43.03;;;23.00;;
70733;SDS011;58320;48.804;9.252;2024-01-11T12:16:09;41.28;;;24.17;;
70733;SDS011;58320;48.804;9.252;2024-01-11T12:18:36;41.13;;;23.52;;
70733;SDS011;58320;48.804;9.252;2024-01-11T12:21:01;41.13;;;22.57;;
70733;SDS011;58320;48.804;9.252;2024-01-11T12:23:27;43.65;;;23.40;;
70733;SDS011;58320;48.804;9.252;2024-01-11T12:25:58;40.75;;;22.83;;
70733;SDS011;58320;48.804;9.252;2024-01-11T12:28:26;39.72;;;23.70;;
70733;SDS011;58320;48.804;9.252;2024-01-11T12:30:51;46.60;;;25.40;;
70733;SDS011;58320;48.804;9.252;2024-01-11T12:33:17;42.03;;;24.30;;
70733;SDS011;58320;48.804;9.252;2024-01-11T12:35:44;43.57;;;24.10;;
70733;SDS011;58320;48.804;9.252;2024-01-11T12:38:10;43.95;;;23.90;;
70733;SDS011;58320;48.804;9.252;2024-01-11T12:40:36;42.40;;;24.88;;
70733;SDS011;58320;48.804;9.252;2024-01-11T12:43:03;38.47;;;22.77;;
70733;SDS011;58320;48.804;9.252;2024-01-11T12:45:30;46.97;;;24.40;;
70733;SDS011;58320;48.804;9.252;2024-01-11T12:47:57;42.42;;;24.00;;
70733;SDS011;58320;48.804;9.252;2024-01-11T12:50:25;46.30;;;24.05;;
70733;SDS011;58320;48.804;9.252;2024-01-11T12:53:13;45.40;;;24.88;;
70733;SDS011;58320;48.804;9.252;2024-01-11T12:55:43;41.27;;;22.80;;
70733;SDS011;58320;48.804;9.252;2024-01-11T12:58:10;42.75;;;23.73;;
70733;SDS011;58320;48.804;9.252;2024-01-11T13:00:36;43.15;;;23.88;;
70733;SDS011;58320;48.804;9.252;2024-01-11T13:03:03;40.88;;;23.65;;
70733;SDS011;58320;48.804;9.252;2024-01-11T13:05:30;41.93;;;22.63;;
70733;SDS011;58320;48.804;9.252;2024-01-11T13:08:07;40.30;;;23.27;;
70733;SDS011;58320;48.804;9.252;2024-01-11T13:10:34;38.97;;;22.13;;
70733;SDS011;58320;48.804;9.252;2024-01-11T13:13:01;42.15;;;22.65;;
70733;SDS011;58320;48.804;9.252;2024-01-11T13:15:27;43.35;;;24.08;;
70733;SDS011;58320;48.804;9.252;2024-01-11T13:17:59;42.40;;;22.83;;
70733;SDS011;58320;48.804;9.252;2024-01-11T13:20:26;46.58;;;23.85;;
70733;SDS011;58320;48.804;9.252;2024-01-11T13:23:11;42.08;;;22.55;;
70733;SDS011;58320;48.804;9.252;2024-01-11T13:25:44;40.35;;;20.55;;
70733;SDS011;58320;48.804;9.252;2024-01-11T13:28:11;46.70;;;23.98;;
70733;SDS011;58320;48.804;9.252;2024-01-11T13:30:38;45.40;;;24.10;;
70733;SDS011;58320;48.804;9.252;2024-01-11T13:33:05;44.97;;;22.85;;
70733;SDS011;58320;48.804;9.252;2024-01-11T13:35:33;48.17;;;24.27;;
70733;SDS011;58320;48.804;9.252;2024-01-11T13:38:03;43.45;;;23.23;;
70733;SDS011;58320;48.804;9.252;2024-01-11T13:40:29;44.35;;;24.15;;
70733;SDS011;58320;48.804;9.252;2024-01-11T13:42:56;40.40;;;22.97;;
70733;SDS011;58320;48.804;9.252;2024-01-11T13:45:23;43.15;;;23.42;;
70733;SDS011;58320;48.804;9.252;2024-01-11T13:47:49;47.28;;;24.55;;
70733;SDS011;58320;48.804;9.252;2024-01-11T13:50:15;43.85;;;23.02;;
70733;SDS011;58320;48.804;9.252;2024-01-11T13:52:42;46.60;;;24.27;;
70733;SDS011;58320;48.804;9.252;2024-01-11T13:55:10;46.83;;;23.93;;
70733;SDS011;58320;48.804;9.252;2024-01-11T13:57:36;45.25;;;23.70;;
70733;SDS011;58320;48.804;9.252;2024-01-11T14:00:03;47.17;;;25.27;;
70733;SDS011;58320;48.804;9.252;2024-01-11T14:02:30;48.97;;;23.63;;
70733;SDS011;58320;48.804;9.252;2024-01-11T14:04:56;51.88;;;25.13;;
70733;SDS011;58320;48.804;9.252;2024-01-11T14:07:23;48.50;;;23.07;;
70733;SDS011;58320;48.804;9.252;2024-01-11T14:09:49;47.13;;;23.17;;
70733;SDS011;58320;48.804;9.252;2024-01-11T14:12:15;47.97;;;23.30;;
70733;SDS011;58320;48.804;9.252;2024-01-11T14:14:41;45.13;;;24.10;;
70733;SDS011;58320;48.804;9.252;2024-01-11T14:17:08;48.87;;;23.77;;
70733;SDS011;58320;48.804;9.252;2024-01-11T14:19:34;49.35;;;24.95;;
70733;SDS011;58320;48.804;9.252;2024-01-11T14:22:00;45.25;;;23.42;;
70733;SDS011;58320;48.804;9.252;2024-01-11T14:24:26;43.70;;;23.03;;
70733;SDS011;58320;48.804;9.252;2024-01-11T14:26:53;45.50;;;23.63;;